sensor_id;sensor_type;location;lat;lon;timestamp;temperature;humidity
5011;DHT22;2524;54.364;10.072;2023-08-21T20:11:45;20.40;99.90
5011;DHT22;2524;54.364;10.072;2023-08-21T20:14:14;20.30;99.90
5011;DHT22;2524;54.364;10.072;2023-08-21T20:16:40;20.30;99.90
5011;DHT22;2524;54.364;10.072;2023-08-21T20:19:06;20.30;99.90
5011;DHT22;2524;54.364;10.072;2023-08-21T20:21:32;20.20;99.90
5011;DHT22;2524;54.364;10.072;2023-08-21T20:23:58;20.20;99.90
5011;DHT22;2524;54.364;10.072;2023-08-21T20:26:23;20.20;99.90
5011;DHT22;2524;54.364;10.072;2023-08-21T20:28:50;20.10;99.90
5011;DHT22;2524;54.364;10.072;2023-08-21T20:31:16;20.10;99.90
5011;DHT22;2524;54.364;10.072;2023-08-21T20:33:41;20.10;99.90
5011;DHT22;2524;54.364;10.072;2023-08-21T20:36:07;20.00;99.90
5011;DHT22;2524;54.364;10.072;2023-08-21T20:38:32;20.00;99.90
5011;DHT22;2524;54.364;10.072;2023-08-21T20:41:02;20.00;99.90
5011;DHT22;2524;54.364;10.072;2023-08-21T20:43:32;19.90;99.90
5011;DHT22;2524;54.364;10.072;2023-08-21T20:46:06;19.80;99.90
5011;DHT22;2524;54.364;10.072;2023-08-21T20:48:32;19.70;99.90
5011;DHT22;2524;54.364;10.072;2023-08-21T20:50:58;19.80;99.90
5011;DHT22;2524;54.364;10.072;2023-08-21T20:53:25;19.80;99.90
5011;DHT22;2524;54.364;10.072;2023-08-21T20:55:54;19.80;99.90
5011;DHT22;2524;54.364;10.072;2023-08-21T20:58:25;19.80;99.90
5011;DHT22;2524;54.364;10.072;2023-08-21T21:00:51;19.70;99.90
5011;DHT22;2524;54.364;10.072;2023-08-21T21:03:17;19.80;99.90
5011;DHT22;2524;54.364;10.072;2023-08-21T21:05:43;19.70;99.90
5011;DHT22;2524;54.364;10.072;2023-08-21T21:08:08;19.60;99.90
5011;DHT22;2524;54.364;10.072;2023-08-21T21:10:34;19.60;99.90
5011;DHT22;2524;54.364;10.072;2023-08-21T21:13:00;19.60;99.90
5011;DHT22;2524;54.364;10.072;2023-08-21T21:15:25;19.50;99.90
5011;DHT22;2524;54.364;10.072;2023-08-21T21:17:51;19.60;99.90
5011;DHT22;2524;54.364;10.072;2023-08-21T21:20:17;19.50;99.90
5011;DHT22;2524;54.364;10.072;2023-08-21T21:22:42;19.30;99.90
5011;DHT22;2524;54.364;10.072;2023-08-21T21:25:08;19.20;99.90
5011;DHT22;2524;54.364;10.072;2023-08-21T21:27:34;19.20;99.90
5011;DHT22;2524;54.364;10.072;2023-08-21T21:30:00;19.20;99.90
5011;DHT22;2524;54.364;10.072;2023-08-21T21:32:25;19.20;99.90
5011;DHT22;2524;54.364;10.072;2023-08-21T21:34:51;19.20;99.90
5011;DHT22;2524;54.364;10.072;2023-08-21T21:37:16;19.20;99.90
5011;DHT22;2524;54.364;10.072;2023-08-21T21:39:42;19.20;99.90
5011;DHT22;2524;54.364;10.072;2023-08-21T21:42:08;19.20;99.90
5011;DHT22;2524;54.364;10.072;2023-08-21T21:44:34;19.10;99.90
5011;DHT22;2524;54.364;10.072;2023-08-21T21:46:59;19.10;99.90
5011;DHT22;2524;54.364;10.072;2023-08-21T21:49:25;19.10;99.90
5011;DHT22;2524;54.364;10.072;2023-08-21T21:51:51;19.20;99.90
5011;DHT22;2524;54.364;10.072;2023-08-21T21:54:16;19.10;99.90
5011;DHT22;2524;54.364;10.072;2023-08-21T21:56:42;19.00;99.90
5011;DHT22;2524;54.364;10.072;2023-08-21T21:59:07;19.00;99.90
5011;DHT22;2524;54.364;10.072;2023-08-21T22:01:33;19.00;99.90
5011;DHT22;2524;54.364;10.072;2023-08-21T22:03:58;18.90;99.90
5011;DHT22;2524;54.364;10.072;2023-08-21T22:06:24;19.00;99.90
5011;DHT22;2524;54.364;10.072;2023-08-21T22:52:44;19.00;99.90
5011;DHT22;2524;54.364;10.072;2023-08-21T22:55:10;18.60;99.90
5011;DHT22;2524;54.364;10.072;2023-08-21T22:57:36;18.50;99.90
5011;DHT22;2524;54.364;10.072;2023-08-21T23:00:02;18.50;99.90
5011;DHT22;2524;54.364;10.072;2023-08-21T23:02:31;18.50;99.90
5011;DHT22;2524;54.364;10.072;2023-08-21T23:04:56;18.50;99.90
5011;DHT22;2524;54.364;10.072;2023-08-21T23:07:22;18.50;99.90
5011;DHT22;2524;54.364;10.072;2023-08-21T23:09:48;18.60;99.90
5011;DHT22;2524;54.364;10.072;2023-08-21T23:12:14;18.50;99.90
5011;DHT22;2524;54.364;10.072;2023-08-21T23:14:40;18.40;99.90
5011;DHT22;2524;54.364;10.072;2023-08-21T23:17:05;18.60;99.90
5011;DHT22;2524;54.364;10.072;2023-08-21T23:19:32;18.60;99.90
5011;DHT22;2524;54.364;10.072;2023-08-21T23:21:58;18.60;99.90
5011;DHT22;2524;54.364;10.072;2023-08-21T23:24:23;18.50;99.90
5011;DHT22;2524;54.364;10.072;2023-08-21T23:26:49;18.50;99.90
5011;DHT22;2524;54.364;10.072;2023-08-21T23:29:14;18.50;99.90
5011;DHT22;2524;54.364;10.072;2023-08-21T23:31:40;18.50;99.90
5011;DHT22;2524;54.364;10.072;2023-08-21T23:34:06;18.40;99.90
5011;DHT22;2524;54.364;10.072;2023-08-21T23:36:32;18.30;99.90
5011;DHT22;2524;54.364;10.072;2023-08-21T23:38:57;18.30;99.90
5011;DHT22;2524;54.364;10.072;2023-08-21T23:41:23;18.20;99.90
5011;DHT22;2524;54.364;10.072;2023-08-21T23:43:48;18.20;99.90
5011;DHT22;2524;54.364;10.072;2023-08-21T23:46:14;18.30;99.90
5011;DHT22;2524;54.364;10.072;2023-08-21T23:48:40;18.40;99.90
5011;DHT22;2524;54.364;10.072;2023-08-21T23:51:05;18.20;99.90
5011;DHT22;2524;54.364;10.072;2023-08-21T23:53:33;18.20;99.90
5011;DHT22;2524;54.364;10.072;2023-08-21T23:55:59;18.20;99.90
5011;DHT22;2524;54.364;10.072;2023-08-21T23:58:25;18.30;99.90
